createdAt,value
2018-05-15T00:00:17.983Z,15.67
2018-05-15T00:01:18.027Z,15.64
2018-05-15T00:02:18.030Z,15.66
2018-05-15T00:03:18.061Z,15.64
2018-05-15T00:04:18.079Z,15.66
2018-05-15T00:05:18.099Z,15.67
2018-05-15T00:06:18.122Z,15.68
2018-05-15T00:07:18.143Z,15.64
2018-05-15T00:08:18.162Z,15.68
2018-05-15T00:09:18.188Z,15.74
2018-05-15T00:10:18.219Z,15.72
2018-05-15T00:11:18.233Z,15.70
2018-05-15T00:12:18.257Z,15.64
2018-05-15T00:13:18.276Z,15.63
2018-05-15T00:14:18.306Z,15.57
2018-05-15T00:15:18.327Z,15.63
2018-05-15T00:16:18.360Z,15.63
2018-05-15T00:17:18.373Z,15.63
2018-05-15T00:18:18.393Z,15.67
2018-05-15T00:19:18.432Z,15.60
2018-05-15T00:20:18.445Z,15.51
2018-05-15T00:21:18.456Z,15.52
2018-05-15T00:22:18.483Z,15.49
2018-05-15T00:23:18.511Z,15.43
2018-05-15T00:24:18.529Z,15.49
2018-05-15T00:25:18.547Z,15.66
2018-05-15T00:26:18.586Z,15.54
2018-05-15T00:27:18.597Z,15.51
2018-05-15T00:28:18.626Z,15.52
2018-05-15T00:29:18.660Z,15.51
2018-05-15T00:30:18.669Z,15.49
2018-05-15T00:31:18.694Z,15.59
2018-05-15T00:32:18.713Z,15.64
2018-05-15T00:33:18.764Z,15.59
2018-05-15T00:34:18.764Z,15.72
2018-05-15T00:35:18.780Z,15.70
2018-05-15T00:36:18.805Z,15.59
2018-05-15T00:37:18.828Z,15.70
2018-05-15T00:38:18.848Z,15.52
2018-05-15T00:39:18.867Z,15.60
2018-05-15T00:40:18.888Z,15.66
2018-05-15T00:41:19.019Z,15.49
2018-05-15T00:42:18.952Z,15.49
2018-05-15T00:43:18.961Z,15.45
2018-05-15T00:44:19.082Z,15.43
2018-05-15T00:45:18.998Z,15.49
2018-05-15T00:46:19.029Z,15.54
2018-05-15T00:47:19.064Z,15.63
2018-05-15T00:48:19.072Z,15.61
2018-05-15T00:49:19.104Z,15.63
2018-05-15T00:50:19.114Z,15.66
2018-05-15T00:51:19.140Z,15.67
2018-05-15T00:52:19.175Z,15.64
2018-05-15T00:53:19.196Z,15.63
2018-05-15T00:54:19.230Z,15.74
2018-05-15T00:55:19.266Z,15.70
2018-05-15T00:56:19.254Z,15.64
2018-05-15T00:57:19.287Z,15.66
2018-05-15T00:58:19.305Z,15.68
2018-05-15T00:59:19.319Z,15.57
2018-05-15T01:00:19.343Z,15.59
2018-05-15T01:01:19.375Z,15.33
2018-05-15T01:02:19.392Z,15.43
2018-05-15T01:03:19.412Z,15.49
2018-05-15T01:04:19.439Z,15.45
2018-05-15T01:05:19.460Z,15.46
2018-05-15T01:06:19.487Z,15.49
2018-05-15T01:07:19.529Z,15.59
2018-05-15T01:08:19.525Z,15.60
2018-05-15T01:09:19.548Z,15.57
2018-05-15T01:10:19.579Z,15.60
2018-05-15T01:11:19.605Z,15.66
2018-05-15T01:12:19.614Z,15.66
2018-05-15T01:13:19.647Z,15.67
2018-05-15T01:14:19.666Z,15.49
2018-05-15T01:15:19.724Z,15.51
2018-05-15T01:16:19.711Z,15.56
2018-05-15T01:17:19.729Z,15.52
2018-05-15T01:18:19.752Z,15.51
2018-05-15T01:19:19.780Z,15.51
2018-05-15T01:20:19.799Z,15.41
2018-05-15T01:21:19.832Z,15.51
2018-05-15T01:22:19.940Z,15.49
2018-05-15T01:23:19.872Z,15.48
2018-05-15T01:24:19.899Z,15.42
2018-05-15T01:25:19.930Z,15.49
2018-05-15T01:26:19.939Z,15.54
2018-05-15T01:27:19.958Z,15.57
2018-05-15T01:28:19.983Z,15.52
2018-05-15T01:29:20.024Z,15.59
2018-05-15T01:30:20.026Z,15.57
2018-05-15T01:31:20.057Z,15.56
2018-05-15T01:32:20.080Z,15.61
2018-05-15T01:33:20.098Z,15.57
2018-05-15T01:34:20.113Z,15.59
2018-05-15T01:35:20.160Z,15.63
2018-05-15T01:36:20.187Z,15.64
2018-05-15T01:37:20.184Z,15.60
2018-05-15T01:38:20.209Z,15.59
2018-05-15T01:39:20.230Z,15.60
2018-05-15T01:40:20.258Z,15.59
2018-05-15T01:41:20.280Z,15.56
2018-05-15T01:42:20.303Z,15.51
2018-05-15T01:43:20.325Z,15.54
2018-05-15T01:44:20.345Z,15.41
2018-05-15T01:45:20.369Z,15.52
2018-05-15T01:46:20.387Z,15.46
2018-05-15T01:47:20.411Z,15.42
2018-05-15T01:48:20.436Z,15.42
2018-05-15T01:49:20.459Z,15.41
2018-05-15T01:50:20.492Z,15.39
2018-05-15T01:51:20.508Z,15.39
2018-05-15T01:52:20.528Z,15.42
2018-05-15T01:53:20.547Z,15.45
2018-05-15T01:54:20.569Z,15.56
2018-05-15T01:55:20.596Z,15.38
2018-05-15T01:56:20.623Z,15.26
2018-05-15T01:57:20.643Z,15.23
2018-05-15T01:58:20.660Z,15.23
2018-05-15T01:59:20.692Z,15.24
2018-05-15T02:00:20.707Z,15.24
2018-05-15T02:01:20.731Z,15.33
2018-05-15T02:02:20.755Z,15.48
2018-05-15T02:03:20.768Z,15.52
2018-05-15T02:04:20.807Z,15.42
2018-05-15T02:05:20.816Z,15.39
2018-05-15T02:06:20.844Z,15.43
2018-05-15T02:07:20.863Z,15.45
2018-05-15T02:08:20.885Z,15.51
2018-05-15T02:09:20.903Z,15.45
2018-05-15T02:10:20.966Z,15.31
2018-05-15T02:11:20.964Z,15.41
2018-05-15T02:12:20.981Z,15.36
2018-05-15T02:13:20.999Z,15.24
2018-05-15T02:14:21.022Z,15.30
2018-05-15T02:15:21.051Z,15.39
2018-05-15T02:16:21.064Z,15.51
2018-05-15T02:17:21.090Z,15.35
2018-05-15T02:18:21.108Z,15.17
2018-05-15T02:19:21.130Z,15.26
2018-05-15T02:20:21.161Z,15.33
2018-05-15T02:21:21.179Z,15.41
2018-05-15T02:22:21.205Z,15.46
2018-05-15T02:23:21.234Z,15.39
2018-05-15T02:24:21.249Z,15.54
2018-05-15T02:25:21.270Z,15.42
2018-05-15T02:26:21.299Z,15.51
2018-05-15T02:27:21.314Z,15.42
2018-05-15T02:28:21.338Z,15.24
2018-05-15T02:29:21.384Z,15.19
2018-05-15T02:30:21.410Z,15.42
2018-05-15T02:31:21.411Z,15.38
2018-05-15T02:32:21.428Z,15.51
2018-05-15T02:33:21.464Z,15.49
2018-05-15T02:34:21.467Z,15.52
2018-05-15T02:35:21.500Z,15.38
2018-05-15T02:36:21.524Z,15.49
2018-05-15T02:37:21.556Z,15.48
2018-05-15T02:38:21.567Z,15.52
2018-05-15T02:39:21.584Z,15.52
2018-05-15T02:40:21.604Z,15.59
2018-05-15T02:41:21.631Z,15.48
2018-05-15T02:42:21.655Z,15.51
2018-05-15T02:43:21.676Z,15.38
2018-05-15T02:44:21.707Z,15.41
2018-05-15T02:45:21.721Z,15.56
2018-05-15T02:46:21.740Z,15.46
2018-05-15T02:47:21.772Z,15.57
2018-05-15T02:48:21.790Z,15.49
2018-05-15T02:49:21.810Z,15.51
2018-05-15T02:50:21.829Z,15.54
2018-05-15T02:51:21.861Z,15.49
2018-05-15T02:52:21.909Z,15.59
2018-05-15T02:53:21.904Z,15.60
2018-05-15T02:54:21.927Z,15.61
2018-05-15T02:55:21.965Z,15.57
2018-05-15T02:56:21.969Z,15.60
2018-05-15T02:57:22.001Z,15.57
2018-05-15T02:58:22.013Z,15.49
2018-05-15T02:59:22.127Z,15.52
2018-05-15T03:00:22.061Z,15.41
2018-05-15T03:01:22.089Z,15.38
2018-05-15T03:02:22.115Z,15.36
2018-05-15T03:03:22.123Z,15.39
2018-05-15T03:04:22.144Z,15.36
2018-05-15T03:05:22.186Z,15.35
2018-05-15T03:06:22.197Z,15.39
2018-05-15T03:07:22.213Z,15.41
2018-05-15T03:08:22.235Z,15.33
2018-05-15T03:09:22.259Z,15.33
2018-05-15T03:10:22.286Z,15.36
2018-05-15T03:11:22.306Z,15.39
2018-05-15T03:12:22.342Z,15.36
2018-05-15T03:13:22.355Z,15.43
2018-05-15T03:14:22.378Z,15.39
2018-05-15T03:15:22.403Z,15.54
2018-05-15T03:16:22.417Z,15.41
2018-05-15T03:17:22.450Z,15.48
2018-05-15T03:18:22.477Z,15.48
2018-05-15T03:19:22.488Z,15.48
2018-05-15T03:20:22.514Z,15.51
2018-05-15T03:21:22.530Z,15.49
2018-05-15T03:22:22.552Z,15.54
2018-05-15T03:23:22.576Z,15.48
2018-05-15T03:24:22.618Z,15.59
2018-05-15T03:25:22.631Z,15.54
2018-05-15T03:26:22.680Z,15.49
2018-05-15T03:27:22.662Z,15.41
2018-05-15T03:28:22.690Z,15.36
2018-05-15T03:29:22.710Z,15.35
2018-05-15T03:30:22.736Z,15.43
2018-05-15T03:31:22.791Z,15.49
2018-05-15T03:32:22.776Z,15.33
2018-05-15T03:33:22.818Z,15.43
2018-05-15T03:34:22.838Z,15.42
2018-05-15T03:35:22.854Z,15.41
2018-05-15T03:36:22.868Z,15.36
2018-05-15T03:37:22.890Z,15.43
2018-05-15T03:38:22.912Z,15.41
2018-05-15T03:39:22.934Z,15.30
2018-05-15T03:40:22.962Z,15.43
2018-05-15T03:41:22.995Z,15.41
2018-05-15T03:42:23.007Z,15.38
2018-05-15T03:43:23.030Z,15.41
2018-05-15T03:44:23.078Z,15.38
2018-05-15T03:45:23.075Z,15.35
2018-05-15T03:46:23.096Z,15.38
2018-05-15T03:47:23.119Z,15.38
2018-05-15T03:48:23.198Z,15.36
2018-05-15T03:49:23.172Z,15.35
2018-05-15T03:50:23.208Z,15.35
2018-05-15T03:51:23.234Z,15.49
2018-05-15T03:52:23.255Z,15.45
2018-05-15T03:53:23.273Z,15.38
2018-05-15T03:54:23.279Z,15.41
2018-05-15T03:55:23.294Z,15.36
2018-05-15T03:56:23.325Z,15.39
2018-05-15T03:57:23.339Z,15.36
2018-05-15T03:58:23.361Z,15.39
2018-05-15T03:59:23.383Z,15.46
2018-05-15T04:00:23.409Z,15.41
2018-05-15T04:01:23.439Z,15.41
2018-05-15T04:02:23.510Z,15.39
2018-05-15T04:03:23.475Z,15.33
2018-05-15T04:04:23.499Z,15.39
2018-05-15T04:05:23.524Z,15.28
2018-05-15T04:06:23.547Z,15.38
2018-05-15T04:07:23.575Z,15.41
2018-05-15T04:08:23.585Z,15.24
2018-05-15T04:09:23.609Z,15.23
2018-05-15T04:10:23.639Z,15.05
2018-05-15T04:11:23.664Z,15.12
2018-05-15T04:12:23.683Z,15.24
2018-05-15T04:13:23.702Z,15.33
2018-05-15T04:14:23.727Z,15.38
2018-05-15T04:15:23.744Z,15.13
2018-05-15T04:16:23.764Z,15.06
2018-05-15T04:17:23.799Z,15.13
2018-05-15T04:18:23.816Z,15.12
2018-05-15T04:19:23.835Z,15.27
2018-05-15T04:20:23.862Z,15.39
2018-05-15T04:21:23.964Z,15.31
2018-05-15T04:22:23.905Z,15.42
2018-05-15T04:23:23.928Z,15.38
2018-05-15T04:24:23.955Z,15.46
2018-05-15T04:25:23.975Z,15.43
2018-05-15T04:26:24.000Z,15.36
2018-05-15T04:27:24.012Z,15.23
2018-05-15T04:28:24.123Z,15.24
2018-05-15T04:29:24.062Z,15.38
2018-05-15T04:30:24.087Z,15.42
2018-05-15T04:31:24.111Z,15.48
2018-05-15T04:32:24.129Z,15.39
2018-05-15T04:33:24.153Z,15.35
2018-05-15T04:34:24.174Z,15.41
2018-05-15T04:35:24.281Z,15.42
2018-05-15T04:36:24.220Z,15.49
2018-05-15T04:37:24.241Z,15.51
2018-05-15T04:38:24.266Z,15.41
2018-05-15T04:39:24.284Z,15.51
2018-05-15T04:40:24.308Z,15.52
2018-05-15T04:41:24.325Z,15.51
2018-05-15T04:42:24.353Z,15.52
2018-05-15T04:43:24.425Z,15.49
2018-05-15T04:44:24.401Z,15.38
2018-05-15T04:45:24.420Z,15.46
2018-05-15T04:46:24.449Z,15.41
2018-05-15T04:47:24.483Z,15.45
2018-05-15T04:48:24.488Z,15.35
2018-05-15T04:49:24.601Z,15.31
2018-05-15T04:50:24.532Z,15.24
2018-05-15T04:51:24.553Z,15.42
2018-05-15T04:52:24.616Z,15.39
2018-05-15T04:53:24.609Z,15.45
2018-05-15T04:54:24.621Z,15.49
2018-05-15T04:55:24.718Z,15.42
2018-05-15T04:56:24.678Z,15.49
2018-05-15T04:57:24.693Z,15.59
2018-05-15T04:58:24.716Z,15.49
2018-05-15T04:59:24.738Z,15.52
2018-05-15T05:00:24.764Z,15.46
2018-05-15T05:01:24.800Z,15.49
2018-05-15T05:02:24.798Z,15.56
2018-05-15T05:03:24.827Z,15.57
2018-05-15T05:04:24.847Z,15.52
2018-05-15T05:05:24.877Z,15.59
2018-05-15T05:06:24.909Z,15.63
2018-05-15T05:07:24.924Z,15.59
2018-05-15T05:08:25.016Z,15.64
2018-05-15T05:09:24.965Z,15.66
2018-05-15T05:10:24.992Z,15.67
2018-05-15T05:11:25.009Z,15.66
2018-05-15T05:12:25.036Z,15.78
2018-05-15T05:13:25.062Z,15.74
2018-05-15T05:14:25.078Z,15.64
2018-05-15T05:15:25.093Z,15.57
2018-05-15T05:16:25.121Z,15.59
2018-05-15T05:17:25.165Z,15.61
2018-05-15T05:18:25.168Z,15.45
2018-05-15T05:19:25.190Z,15.48
2018-05-15T05:20:25.215Z,15.56
2018-05-15T05:21:25.239Z,15.61
2018-05-15T05:22:25.255Z,15.48
2018-05-15T05:23:25.295Z,15.56
2018-05-15T05:24:25.316Z,15.57
2018-05-15T05:25:25.325Z,15.60
2018-05-15T05:26:25.349Z,15.66
2018-05-15T05:27:25.371Z,15.63
2018-05-15T05:28:25.393Z,15.49
2018-05-15T05:29:25.412Z,15.64
2018-05-15T05:30:25.440Z,15.70
2018-05-15T05:31:25.464Z,15.76
2018-05-15T05:32:25.504Z,15.72
2018-05-15T05:33:25.574Z,15.74
2018-05-15T05:34:25.547Z,15.81
2018-05-15T05:35:25.550Z,15.84
2018-05-15T05:36:25.574Z,15.82
2018-05-15T05:37:25.600Z,15.75
2018-05-15T05:38:25.623Z,15.89
2018-05-15T05:39:25.672Z,15.88
2018-05-15T05:40:25.665Z,15.89
2018-05-15T05:41:25.692Z,15.88
2018-05-15T05:42:25.710Z,15.92
2018-05-15T05:43:25.730Z,15.92
2018-05-15T05:44:25.751Z,15.96
2018-05-15T05:45:25.777Z,15.97
2018-05-15T05:46:25.848Z,15.94
2018-05-15T05:47:25.879Z,15.89
2018-05-15T05:48:25.863Z,15.85
2018-05-15T05:49:25.870Z,15.89
2018-05-15T05:50:25.897Z,15.89
2018-05-15T05:51:25.922Z,15.93
2018-05-15T05:52:25.938Z,15.94
2018-05-15T05:53:25.958Z,16.03
2018-05-15T05:54:25.981Z,16.09
2018-05-15T05:55:26.005Z,16.00
2018-05-15T05:56:26.030Z,15.88
2018-05-15T05:57:26.052Z,15.93
2018-05-15T05:58:26.072Z,15.85
2018-05-15T05:59:26.093Z,16.03
2018-05-15T06:00:26.122Z,15.94
2018-05-15T06:01:26.148Z,16.07
2018-05-15T06:02:26.170Z,16.23
2018-05-15T06:03:26.187Z,16.14
2018-05-15T06:04:26.212Z,16.14
2018-05-15T06:05:26.230Z,16.22
2018-05-15T06:06:26.376Z,16.25
2018-05-15T06:07:26.298Z,16.26
2018-05-15T06:08:26.341Z,16.26
2018-05-15T06:09:26.323Z,16.33
2018-05-15T06:10:26.345Z,16.37
2018-05-15T06:11:26.378Z,16.38
2018-05-15T06:12:26.399Z,16.35
2018-05-15T06:13:26.420Z,16.30
2018-05-15T06:14:26.598Z,16.34
2018-05-15T06:15:26.465Z,16.25
2018-05-15T06:16:26.488Z,16.31
2018-05-15T06:17:26.507Z,16.34
2018-05-15T06:18:26.527Z,16.23
2018-05-15T06:19:26.553Z,16.26
2018-05-15T06:20:26.577Z,16.27
2018-05-15T06:21:26.599Z,16.25
2018-05-15T06:22:26.632Z,16.30
2018-05-15T06:23:26.639Z,16.31
2018-05-15T06:24:26.676Z,16.33
2018-05-15T06:25:26.692Z,16.06
2018-05-15T06:26:26.709Z,16.06
2018-05-15T06:27:26.800Z,16.14
2018-05-15T06:28:26.757Z,16.25
2018-05-15T06:29:26.786Z,16.35
2018-05-15T06:30:26.801Z,16.20
2018-05-15T06:31:26.829Z,16.15
2018-05-15T06:32:26.901Z,16.25
2018-05-15T06:33:26.881Z,16.25
2018-05-15T06:34:26.899Z,16.30
2018-05-15T06:35:26.920Z,16.33
2018-05-15T06:36:26.955Z,16.44
2018-05-15T06:37:26.977Z,16.48
2018-05-15T06:38:26.993Z,16.48
2018-05-15T06:39:27.015Z,16.48
2018-05-15T06:40:27.050Z,16.44
2018-05-15T06:41:27.063Z,16.62
2018-05-15T06:42:27.089Z,16.58
2018-05-15T06:43:27.113Z,16.58
2018-05-15T06:44:27.128Z,16.63
2018-05-15T06:45:27.161Z,16.63
2018-05-15T06:46:27.179Z,16.65
2018-05-15T06:47:27.201Z,16.71
2018-05-15T06:48:27.221Z,16.56
2018-05-15T06:49:27.249Z,16.53
2018-05-15T06:50:27.266Z,16.55
2018-05-15T06:51:27.297Z,16.58
2018-05-15T06:52:27.311Z,16.58
2018-05-15T06:53:27.339Z,16.55
2018-05-15T06:54:27.357Z,16.60
2018-05-15T06:55:27.378Z,16.60
2018-05-15T06:56:27.408Z,16.67
2018-05-15T06:57:27.426Z,16.68
2018-05-15T06:58:27.453Z,16.68
2018-05-15T06:59:27.473Z,16.65
2018-05-15T07:00:27.500Z,16.71
2018-05-15T07:01:27.528Z,16.68
2018-05-15T07:02:27.557Z,16.81
2018-05-15T07:03:27.564Z,16.85
2018-05-15T07:04:27.587Z,16.85
2018-05-15T07:05:27.631Z,16.80
2018-05-15T07:06:27.638Z,16.95
2018-05-15T07:07:27.662Z,16.99
2018-05-15T07:08:27.695Z,16.89
2018-05-15T07:09:27.706Z,16.90
2018-05-15T07:10:27.743Z,16.95
2018-05-15T07:11:27.758Z,16.93
2018-05-15T07:12:27.781Z,16.95
2018-05-15T07:13:27.807Z,16.95
2018-05-15T07:14:27.837Z,16.95
2018-05-15T07:15:27.850Z,16.98
2018-05-15T07:16:27.879Z,16.95
2018-05-15T07:17:27.900Z,16.90
2018-05-15T07:18:27.987Z,16.95
2018-05-15T07:19:27.957Z,16.90
2018-05-15T07:20:27.967Z,16.96
2018-05-15T07:21:27.993Z,17.03
2018-05-15T07:22:28.015Z,16.95
2018-05-15T07:23:28.038Z,16.99
2018-05-15T07:24:28.087Z,16.92
2018-05-15T07:25:28.122Z,16.90
2018-05-15T07:26:28.125Z,17.03
2018-05-15T07:27:28.222Z,17.06
2018-05-15T07:28:28.156Z,17.10
2018-05-15T07:29:28.179Z,17.07
2018-05-15T07:30:28.202Z,17.14
2018-05-15T07:31:28.221Z,17.00
2018-05-15T07:32:28.262Z,17.13
2018-05-15T07:33:28.276Z,17.18
2018-05-15T07:34:28.290Z,17.15
2018-05-15T07:35:28.313Z,17.25
2018-05-15T07:36:28.340Z,17.20
2018-05-15T07:37:28.376Z,17.26
2018-05-15T07:38:28.404Z,17.15
2018-05-15T07:39:28.408Z,17.08
2018-05-15T07:40:28.444Z,17.13
2018-05-15T07:41:28.455Z,17.00
2018-05-15T07:42:28.486Z,17.00
2018-05-15T07:43:28.510Z,17.00
2018-05-15T07:44:28.563Z,17.08
2018-05-15T07:45:28.554Z,17.18
2018-05-15T07:46:28.664Z,17.32
2018-05-15T07:47:28.634Z,17.23
2018-05-15T07:48:28.628Z,17.17
2018-05-15T07:49:28.700Z,17.29
2018-05-15T07:50:28.749Z,17.33
2018-05-15T07:51:28.702Z,17.29
2018-05-15T07:52:28.718Z,17.33
2018-05-15T07:53:28.742Z,17.22
2018-05-15T07:54:28.762Z,17.22
2018-05-15T07:55:28.789Z,17.35
2018-05-15T07:56:28.824Z,17.38
2018-05-15T07:57:28.843Z,17.33
2018-05-15T07:58:28.867Z,17.33
2018-05-15T07:59:28.887Z,17.32
2018-05-15T08:00:28.911Z,17.40
2018-05-15T08:01:28.941Z,17.44
2018-05-15T08:02:28.959Z,17.46
2018-05-15T08:03:28.981Z,17.53
2018-05-15T08:04:29.097Z,17.51
2018-05-15T08:05:29.036Z,17.59
2018-05-15T08:06:29.058Z,17.50
2018-05-15T08:07:29.072Z,17.62
2018-05-15T08:08:29.110Z,17.70
2018-05-15T08:09:29.122Z,17.63
2018-05-15T08:10:29.154Z,17.50
2018-05-15T08:11:29.177Z,17.54
2018-05-15T08:12:29.198Z,17.64
2018-05-15T08:13:29.215Z,17.74
2018-05-15T08:14:29.259Z,17.53
2018-05-15T08:15:29.264Z,17.70
2018-05-15T08:16:29.301Z,17.67
2018-05-15T08:17:29.327Z,17.76
2018-05-15T08:18:29.340Z,17.78
2018-05-15T08:19:29.365Z,17.85
2018-05-15T08:20:29.385Z,17.79
2018-05-15T08:21:29.410Z,17.92
2018-05-15T08:22:29.498Z,17.95
2018-05-15T08:23:29.461Z,17.99
2018-05-15T08:24:29.489Z,17.99
2018-05-15T08:25:29.508Z,18.03
2018-05-15T08:26:29.538Z,18.07
2018-05-15T08:27:29.552Z,17.92
2018-05-15T08:28:29.585Z,18.06
2018-05-15T08:29:29.601Z,18.02
2018-05-15T08:30:29.627Z,18.04
2018-05-15T08:31:29.650Z,18.10
2018-05-15T08:32:29.680Z,18.12
2018-05-15T08:33:29.703Z,18.10
2018-05-15T08:34:29.730Z,18.18
2018-05-15T08:35:29.749Z,18.28
2018-05-15T08:36:29.775Z,18.29
2018-05-15T08:37:29.840Z,18.15
2018-05-15T08:38:29.822Z,18.10
2018-05-15T08:39:29.844Z,18.15
2018-05-15T08:40:29.869Z,18.13
2018-05-15T08:41:29.889Z,18.22
2018-05-15T08:42:29.920Z,18.25
2018-05-15T08:43:29.942Z,18.25
2018-05-15T08:44:29.972Z,18.22
2018-05-15T08:45:30.009Z,18.21
2018-05-15T08:46:30.021Z,18.10
2018-05-15T08:47:30.038Z,18.13
2018-05-15T08:48:30.063Z,18.18
2018-05-15T08:49:30.093Z,18.12
2018-05-15T08:50:30.113Z,18.17
2018-05-15T08:51:30.225Z,18.15
2018-05-15T08:52:30.160Z,18.09
2018-05-15T08:53:30.182Z,18.13
2018-05-15T08:54:30.217Z,18.13
2018-05-15T08:55:30.232Z,18.19
2018-05-15T08:56:30.298Z,18.22
2018-05-15T08:57:30.292Z,18.28
2018-05-15T08:58:30.303Z,18.22
2018-05-15T08:59:30.332Z,18.27
2018-05-15T09:00:30.363Z,18.31
2018-05-15T09:01:30.379Z,18.22
2018-05-15T09:02:30.404Z,18.13
2018-05-15T09:03:30.432Z,18.17
2018-05-15T09:04:30.447Z,18.21
2018-05-15T09:05:30.479Z,18.09
2018-05-15T09:06:30.504Z,18.09
2018-05-15T09:07:30.522Z,17.99
2018-05-15T09:08:30.555Z,18.13
2018-05-15T09:09:30.576Z,18.03
2018-05-15T09:10:30.596Z,18.10
2018-05-15T09:11:30.625Z,18.28
2018-05-15T09:12:30.645Z,18.18
2018-05-15T09:13:30.677Z,18.17
2018-05-15T09:14:30.702Z,18.19
2018-05-15T09:15:30.723Z,18.22
2018-05-15T09:16:30.746Z,18.29
2018-05-15T09:17:30.776Z,18.36
2018-05-15T09:18:30.798Z,18.37
2018-05-15T09:19:30.818Z,18.29
2018-05-15T09:20:30.846Z,18.22
2018-05-15T09:21:30.864Z,18.31
2018-05-15T09:22:30.892Z,18.47
2018-05-15T09:23:30.918Z,18.55
2018-05-15T09:24:30.943Z,18.54
2018-05-15T09:25:30.967Z,18.62
2018-05-15T09:26:30.997Z,18.62
2018-05-15T09:27:31.022Z,18.77
2018-05-15T09:28:31.034Z,18.86
2018-05-15T09:29:31.067Z,18.83
2018-05-15T09:30:31.091Z,18.83
2018-05-15T09:31:31.112Z,18.98
2018-05-15T09:32:31.134Z,19.05
2018-05-15T09:33:31.157Z,18.98
2018-05-15T09:34:31.228Z,18.98
2018-05-15T09:35:31.219Z,18.90
2018-05-15T09:36:31.341Z,18.92
2018-05-15T09:37:31.258Z,18.91
2018-05-15T09:38:31.289Z,18.84
2018-05-15T09:39:31.311Z,18.83
2018-05-15T09:40:31.335Z,18.90
2018-05-15T09:41:31.360Z,18.95
2018-05-15T09:42:31.382Z,18.94
2018-05-15T09:43:31.413Z,18.83
2018-05-15T09:44:31.433Z,18.79
2018-05-15T09:45:31.479Z,18.94
2018-05-15T09:46:31.485Z,18.90
2018-05-15T09:47:31.514Z,18.92
2018-05-15T09:48:31.532Z,18.95
2018-05-15T09:49:31.557Z,18.95
2018-05-15T09:50:31.586Z,18.98
2018-05-15T09:51:31.617Z,18.95
2018-05-15T09:52:31.633Z,19.10
2018-05-15T09:53:31.661Z,19.10
2018-05-15T09:54:31.691Z,19.20
2018-05-15T09:55:31.714Z,19.17
2018-05-15T09:56:31.745Z,19.17
2018-05-15T09:57:31.761Z,19.25
2018-05-15T09:58:31.784Z,19.23
2018-05-15T09:59:31.803Z,19.24
2018-05-15T10:00:31.833Z,19.21
2018-05-15T10:01:31.863Z,19.23
2018-05-15T10:02:31.887Z,19.28
2018-05-15T10:03:31.913Z,19.31
2018-05-15T10:04:31.931Z,19.35
2018-05-15T10:05:31.963Z,19.21
2018-05-15T10:06:31.981Z,19.35
2018-05-15T10:07:32.043Z,19.36
2018-05-15T10:08:32.034Z,19.33
2018-05-15T10:09:32.054Z,19.24
2018-05-15T10:10:32.092Z,19.28
2018-05-15T10:11:32.119Z,19.39
2018-05-15T10:12:32.196Z,19.36
2018-05-15T10:13:32.180Z,19.42
2018-05-15T10:14:32.198Z,19.43
2018-05-15T10:15:32.212Z,19.48
2018-05-15T10:16:32.238Z,19.48
2018-05-15T10:17:32.259Z,19.51
2018-05-15T10:18:32.350Z,19.66
2018-05-15T10:19:32.317Z,19.53
2018-05-15T10:20:32.351Z,19.39
2018-05-15T10:21:32.361Z,19.36
2018-05-15T10:22:32.388Z,19.23
2018-05-15T10:23:32.416Z,19.20
2018-05-15T10:24:32.440Z,19.25
2018-05-15T10:25:32.483Z,19.13
2018-05-15T10:26:32.498Z,19.17
2018-05-15T10:27:32.516Z,19.20
2018-05-15T10:28:32.538Z,19.14
2018-05-15T10:29:32.572Z,19.20
2018-05-15T10:30:32.601Z,19.23
2018-05-15T10:31:32.617Z,19.24
2018-05-15T10:32:32.642Z,19.28
2018-05-15T10:33:32.661Z,19.28
2018-05-15T10:34:32.692Z,19.39
2018-05-15T10:35:32.719Z,19.50
2018-05-15T10:36:32.749Z,19.60
2018-05-15T10:37:32.768Z,19.61
2018-05-15T10:38:32.795Z,19.75
2018-05-15T10:39:32.817Z,19.76
2018-05-15T10:40:32.895Z,19.76
2018-05-15T10:41:32.871Z,19.87
2018-05-15T10:42:32.892Z,19.87
2018-05-15T10:43:32.921Z,19.98
2018-05-15T10:44:32.942Z,19.87
2018-05-15T10:45:32.966Z,19.93
2018-05-15T10:46:33.007Z,19.86
2018-05-15T10:47:33.024Z,19.79
2018-05-15T10:48:33.050Z,19.73
2018-05-15T10:49:33.080Z,19.86
2018-05-15T10:50:33.098Z,19.84
2018-05-15T10:51:33.124Z,19.87
2018-05-15T10:52:33.152Z,19.88
2018-05-15T10:53:33.235Z,19.87
2018-05-15T10:54:33.202Z,19.88
2018-05-15T10:55:33.224Z,19.93
2018-05-15T10:56:33.248Z,19.93
2018-05-15T10:57:33.279Z,20.03
2018-05-15T10:58:33.303Z,20.10
2018-05-15T10:59:33.350Z,20.12
2018-05-15T11:00:33.351Z,20.12
2018-05-15T11:01:33.380Z,20.15
2018-05-15T11:02:33.415Z,20.21
2018-05-15T11:03:33.432Z,20.25
2018-05-15T11:04:33.453Z,20.35
2018-05-15T11:05:33.482Z,20.25
2018-05-15T11:06:33.511Z,20.27
2018-05-15T11:07:33.534Z,20.16
2018-05-15T11:08:33.558Z,20.06
2018-05-15T11:09:33.595Z,20.03
2018-05-15T11:10:33.621Z,20.05
2018-05-15T11:11:33.638Z,20.05
2018-05-15T11:12:33.658Z,19.88
2018-05-15T11:13:33.700Z,19.90
2018-05-15T11:14:33.722Z,19.86
2018-05-15T11:15:33.760Z,19.83
2018-05-15T11:16:33.764Z,19.88
2018-05-15T11:17:33.790Z,19.93
2018-05-15T11:18:33.882Z,19.90
2018-05-15T11:19:33.845Z,19.84
2018-05-15T11:20:33.864Z,19.87
2018-05-15T11:21:33.895Z,19.94
2018-05-15T11:22:33.919Z,19.86
2018-05-15T11:23:33.942Z,19.80
2018-05-15T11:24:34.062Z,19.83
2018-05-15T11:25:33.993Z,20.02
2018-05-15T11:26:34.028Z,20.08
2018-05-15T11:27:34.042Z,20.24
2018-05-15T11:28:34.072Z,20.39
2018-05-15T11:29:34.105Z,20.42
2018-05-15T11:30:34.158Z,20.43
2018-05-15T11:31:34.148Z,20.39
2018-05-15T11:32:34.199Z,20.27
2018-05-15T11:33:34.201Z,20.21
2018-05-15T11:34:34.226Z,20.16
2018-05-15T11:35:34.285Z,20.21
2018-05-15T11:36:34.276Z,20.38
2018-05-15T11:37:34.308Z,20.41
2018-05-15T11:38:34.341Z,20.59
2018-05-15T11:39:34.358Z,20.68
2018-05-15T11:40:34.382Z,20.68
2018-05-15T11:41:34.477Z,20.77
2018-05-15T11:42:34.435Z,20.84
2018-05-15T11:43:34.462Z,20.89
2018-05-15T11:44:34.486Z,20.91
2018-05-15T11:45:34.505Z,20.91
2018-05-15T11:46:34.555Z,20.93
2018-05-15T11:47:34.605Z,20.81
2018-05-15T11:48:34.935Z,20.64
2018-05-15T11:49:35.318Z,20.62
2018-05-15T11:50:35.730Z,20.53
2018-05-15T11:51:35.722Z,20.53
2018-05-15T11:52:35.211Z,20.49
2018-05-15T11:53:34.718Z,20.35
2018-05-15T11:54:34.749Z,20.35
2018-05-15T11:55:35.296Z,20.25
2018-05-15T11:56:34.879Z,20.20
2018-05-15T11:57:34.817Z,20.23
2018-05-15T11:58:34.852Z,20.16
2018-05-15T11:59:34.873Z,20.34
2018-05-15T12:00:34.903Z,20.51
2018-05-15T12:01:34.948Z,20.72
2018-05-15T12:02:34.990Z,20.69
2018-05-15T12:03:34.984Z,20.79
2018-05-15T12:04:35.005Z,20.86
2018-05-15T12:05:35.031Z,20.77
2018-05-15T12:06:35.180Z,20.77
2018-05-15T12:07:35.088Z,20.81
2018-05-15T12:08:35.110Z,20.96
2018-05-15T12:09:35.146Z,21.05
2018-05-15T12:10:35.186Z,21.20
2018-05-15T12:11:35.197Z,21.29
2018-05-15T12:12:35.217Z,21.30
2018-05-15T12:13:35.235Z,21.35
2018-05-15T12:14:35.275Z,21.29
2018-05-15T12:15:35.302Z,21.38
2018-05-15T12:16:35.319Z,21.38
2018-05-15T12:17:35.347Z,21.64
2018-05-15T12:18:35.413Z,21.59
2018-05-15T12:19:35.402Z,21.54
2018-05-15T12:20:35.433Z,21.57
2018-05-15T12:21:35.452Z,21.63
2018-05-15T12:22:35.482Z,21.67
2018-05-15T12:23:35.512Z,21.78
2018-05-15T12:24:35.598Z,21.75
2018-05-15T12:25:35.561Z,21.78
2018-05-15T12:26:35.590Z,21.82
2018-05-15T12:27:35.616Z,21.83
2018-05-15T12:28:35.646Z,21.91
2018-05-15T12:29:35.668Z,21.98
2018-05-15T12:30:35.698Z,22.09
2018-05-15T12:31:35.720Z,22.16
2018-05-15T12:32:35.745Z,21.99
2018-05-15T12:33:35.782Z,21.91
2018-05-15T12:34:35.799Z,21.78
2018-05-15T12:35:35.837Z,21.76
2018-05-15T12:36:35.861Z,21.75
2018-05-15T12:37:35.880Z,21.69
2018-05-15T12:38:35.909Z,21.54
2018-05-15T12:39:35.932Z,21.50
2018-05-15T12:40:35.959Z,21.50
2018-05-15T12:41:36.118Z,21.45
2018-05-15T12:42:36.009Z,21.48
2018-05-15T12:43:36.046Z,21.72
2018-05-15T12:44:36.063Z,21.81
2018-05-15T12:45:36.093Z,21.94
2018-05-15T12:46:36.211Z,22.06
2018-05-15T12:47:36.153Z,22.02
2018-05-15T12:48:36.261Z,22.12
2018-05-15T12:49:36.199Z,22.04
2018-05-15T12:50:36.240Z,21.82
2018-05-15T12:51:36.258Z,21.81
2018-05-15T12:52:36.284Z,21.97